Time;durP1;ratioP1;P1;durP2;ratioP2;P2;SDS_P1;SDS_P2;PMS_P1;PMS_P2;Temp;Humidity;BMP_temperature;BMP_pressure;BME280_temperature;BME280_humidity;BME280_pressure;Samples;Min_cycle;Max_cycle;Signal;HPM_P1;HPM_P2
2021/12/10 00:02:13;;;;;;;;;0.00;0.00;;;;;10.93;90.00;99065.41;5084563;28;61810;-73
2021/12/10 00:04:41;;;;;;;;;2.00;0.00;;;;;10.81;93.64;99058.19;5085171;28;61862;-74
2021/12/10 00:07:22;;;;;;;;;1.00;1.00;;;;;10.68;92.80;99044.00;5085383;27;61897;-74
2021/12/10 00:09:53;;;;;;;;;1.00;0.00;;;;;10.74;97.75;99033.59;5085565;27;62279;-74
2021/12/10 00:12:35;;;;;;;;;0.75;0.00;;;;;10.71;95.18;99030.94;5084147;28;62679;-74
2021/12/10 00:15:02;;;;;;;;;0.00;0.00;;;;;10.70;95.53;99009.94;5083795;28;62012;-74
2021/12/10 00:17:28;;;;;;;;;0.00;0.00;;;;;10.72;92.49;99013.47;5084744;27;61789;-74
2021/12/10 00:19:57;;;;;;;;;0.00;0.00;;;;;10.74;90.64;98996.00;5085238;27;61916;-74
2021/12/10 00:22:35;;;;;;;;;0.00;0.00;;;;;10.76;89.75;98976.78;5084321;27;62781;-74
2021/12/10 00:25:01;;;;;;;;;0.00;0.00;;;;;10.74;89.59;98956.63;5084779;27;61755;-74
2021/12/10 00:27:29;;;;;;;;;1.00;1.00;;;;;10.73;90.79;98926.88;5082901;28;62001;-74
2021/12/10 00:30:04;;;;;;;;;0.75;0.75;;;;;10.73;91.23;98918.13;5085145;27;61847;-74
2021/12/10 00:32:35;;;;;;;;;1.50;1.00;;;;;10.70;90.55;98920.72;5084001;27;61864;-74
2021/12/10 00:35:06;;;;;;;;;0.00;0.00;;;;;10.64;91.19;98943.34;5083393;28;61868;-74
2021/12/10 00:37:31;;;;;;;;;0.00;0.00;;;;;10.75;93.86;98958.38;5084696;27;61742;-74
2021/12/10 00:40:00;;;;;;;;;0.00;0.00;;;;;10.74;90.21;98969.75;5084780;27;61897;-74
2021/12/10 00:42:32;;;;;;;;;0.00;0.00;;;;;10.77;90.31;98954.03;5082420;28;65024;-74
2021/12/10 00:45:00;;;;;;;;;0.00;0.00;;;;;10.85;90.56;98921.78;5083323;28;62016;-74
2021/12/10 00:47:27;;;;;;;;;0.00;0.00;;;;;10.87;88.42;98910.44;5084319;27;61934;-74
2021/12/10 00:49:52;;;;;;;;;1.00;1.00;;;;;10.89;88.88;98906.09;5084826;28;62221;-74
2021/12/10 00:52:19;;;;;;;;;1.50;0.00;;;;;10.91;88.02;98897.38;5084037;27;61880;-74
2021/12/10 00:54:45;;;;;;;;;0.00;0.00;;;;;10.91;88.67;98889.50;5084442;28;61887;-74
2021/12/10 00:57:13;;;;;;;;;0.00;0.00;;;;;10.96;88.58;98890.41;5079289;28;61813;-74
2021/12/10 00:59:41;;;;;;;;;0.00;0.00;;;;;10.92;88.56;98857.13;5077462;28;61722;-74
2021/12/10 01:02:09;;;;;;;;;0.25;0.00;;;;;10.92;88.67;98838.75;5083724;28;61870;-74
2021/12/10 01:04:37;;;;;;;;;0.00;0.00;;;;;10.93;100.00;98831.78;5084082;27;61946;-74
2021/12/10 01:07:06;;;;;;;;;0.00;0.00;;;;;10.80;91.52;98823.75;5084454;27;62093;-74
2021/12/10 01:09:41;;;;;;;;;0.00;0.00;;;;;10.76;91.13;98826.31;5084330;27;62027;-74
2021/12/10 01:12:11;;;;;;;;;0.00;0.00;;;;;10.71;92.93;98809.63;5082244;28;64084;-74
2021/12/10 01:15:05;;;;;;;;;0.00;0.00;;;;;10.63;95.90;98801.69;5083965;27;62140;-74
2021/12/10 01:28:41;;;;;;;;;0.00;0.00;;;;;10.57;97.18;98783.25;5083864;27;61797;-74
2021/12/10 01:31:06;;;;;;;;;0.00;0.00;;;;;10.59;98.36;98773.66;5083973;27;62096;-74
2021/12/10 01:33:32;;;;;;;;;0.00;0.00;;;;;10.55;94.10;98767.47;5083215;28;62209;-74
2021/12/10 01:35:59;;;;;;;;;0.00;0.00;;;;;10.66;94.42;98764.09;5083920;27;61822;-74
2021/12/10 01:38:26;;;;;;;;;0.00;0.00;;;;;10.69;93.49;98764.13;5084067;28;61767;-74
2021/12/10 01:40:57;;;;;;;;;0.00;0.00;;;;;10.68;96.60;98752.75;5083562;27;61968;-74
2021/12/10 01:43:23;;;;;;;;;0.00;0.00;;;;;10.65;95.25;98757.97;5081025;28;63790;-74
2021/12/10 01:46:05;;;;;;;;;0.00;0.00;;;;;10.71;94.46;98749.28;5082008;28;61788;-74
2021/12/10 01:48:39;;;;;;;;;0.00;0.00;;;;;10.74;92.16;98737.06;5083697;27;61924;-74
2021/12/10 01:51:07;;;;;;;;;0.00;0.00;;;;;10.77;92.71;98749.34;5083774;27;61862;-74
2021/12/10 01:53:35;;;;;;;;;0.00;0.00;;;;;10.76;92.25;98766.84;5082891;27;61853;-74
2021/12/10 01:56:05;;;;;;;;;0.00;0.00;;;;;10.81;91.52;98767.75;5083320;27;61849;-74
2021/12/10 01:58:32;;;;;;;;;0.00;0.00;;;;;10.79;92.37;98753.75;5072813;27;61989;-75
2021/12/10 02:01:06;;;;;;;;;0.00;0.00;;;;;10.85;92.31;98751.19;5083402;27;62073;-74
2021/12/10 02:03:32;;;;;;;;;0.50;0.00;;;;;10.86;92.12;98749.44;5082823;28;61865;-74
2021/12/10 02:05:58;;;;;;;;;0.00;0.00;;;;;10.86;90.90;98744.19;5081821;28;61801;-74
2021/12/10 02:08:24;;;;;;;;;0.50;0.00;;;;;10.94;91.43;98737.28;5083244;27;61864;-74
2021/12/10 02:10:50;;;;;;;;;0.00;0.00;;;;;10.95;90.79;98725.91;5083345;27;61841;-74
2021/12/10 02:13:16;;;;;;;;;0.00;0.00;;;;;11.01;90.53;98732.94;5082629;27;62671;-74
2021/12/10 02:15:42;;;;;;;;;0.00;0.00;;;;;11.00;90.22;98733.84;5083355;27;61767;-74
2021/12/10 02:18:09;;;;;;;;;0.00;0.00;;;;;10.99;90.85;98732.97;5083113;27;62182;-74
2021/12/10 02:20:47;;;;;;;;;0.00;0.00;;;;;10.90;90.38;98729.34;5083347;27;62155;-74
2021/12/10 02:23:13;;;;;;;;;0.00;0.00;;;;;11.00;91.08;98700.56;5082032;28;61795;-74
2021/12/10 02:25:38;;;;;;;;;0.00;0.00;;;;;11.07;90.67;98704.13;5083044;27;61862;-74
2021/12/10 02:28:08;;;;;;;;;0.00;0.00;;;;;11.12;90.06;98698.91;5081623;28;61872;-74
2021/12/10 02:30:35;;;;;;;;;1.00;0.00;;;;;11.16;90.28;98706.84;5083191;27;61865;-74
2021/12/10 02:33:00;;;;;;;;;0.00;0.00;;;;;11.22;89.62;98704.25;5081985;27;61975;-74
2021/12/10 02:35:28;;;;;;;;;0.00;0.00;;;;;11.21;89.64;98686.75;5081597;28;61912;-74
2021/12/10 02:37:54;;;;;;;;;0.00;0.00;;;;;11.22;89.58;98678.00;5082687;27;61817;-74
2021/12/10 02:40:23;;;;;;;;;0.00;0.00;;;;;11.20;89.22;98681.47;5083283;27;61684;-74
2021/12/10 02:42:50;;;;;;;;;0.00;0.00;;;;;11.23;89.87;98677.16;5082114;27;61931;-74
2021/12/10 02:45:18;;;;;;;;;0.00;0.00;;;;;11.29;89.39;98670.16;5082631;27;62084;-74
2021/12/10 02:47:45;;;;;;;;;0.00;0.00;;;;;11.24;89.34;98672.75;5082764;27;61880;-74
2021/12/10 02:50:13;;;;;;;;;0.00;0.00;;;;;11.36;90.24;98672.00;5082976;27;61822;-74
2021/12/10 02:52:39;;;;;;;;;0.00;0.00;;;;;11.36;89.75;98667.59;5081632;27;63944;-74
2021/12/10 02:55:10;;;;;;;;;0.00;0.00;;;;;11.43;89.86;98666.78;5079768;28;61952;-74
2021/12/10 02:57:38;;;;;;;;;0.00;0.00;;;;;11.50;89.95;98649.28;5072451;28;61847;-74
2021/12/10 03:00:09;;;;;;;;;0.00;0.00;;;;;11.52;89.05;98659.81;5082683;27;62200;-74
2021/12/10 03:02:35;;;;;;;;;0.00;0.00;;;;;11.38;88.45;98680.75;5081660;28;61844;-74
2021/12/10 03:05:01;;;;;;;;;0.00;0.00;;;;;11.32;89.23;98673.72;5082590;28;62318;-74
2021/12/10 03:07:26;;;;;;;;;0.00;0.00;;;;;11.41;89.69;98659.75;5082420;28;62327;-74
2021/12/10 03:09:53;;;;;;;;;0.00;0.00;;;;;11.50;90.14;98653.69;5081328;28;62151;-74
2021/12/10 03:12:22;;;;;;;;;0.00;0.00;;;;;11.57;89.50;98666.00;5082079;27;61693;-74
2021/12/10 03:14:51;;;;;;;;;0.00;0.00;;;;;11.61;89.43;98663.41;5082265;28;61939;-74
2021/12/10 03:17:22;;;;;;;;;0.00;0.00;;;;;11.65;89.65;98667.81;5082119;27;61730;-74
2021/12/10 03:19:48;;;;;;;;;0.00;0.00;;;;;11.69;89.79;98658.16;5082771;27;61853;-74
2021/12/10 03:22:14;;;;;;;;;0.00;0.00;;;;;11.62;90.22;98664.28;5081354;27;61909;-74
2021/12/10 03:24:39;;;;;;;;;0.00;0.00;;;;;11.63;90.08;98663.38;5080868;28;61824;-74
2021/12/10 03:27:07;;;;;;;;;0.00;0.00;;;;;11.54;90.57;98665.97;5082067;28;61906;-74
2021/12/10 03:29:36;;;;;;;;;0.00;0.00;;;;;11.57;90.88;98658.13;5082471;27;61833;-74
2021/12/10 03:32:06;;;;;;;;;0.00;0.00;;;;;11.65;90.94;98677.41;5081243;28;61910;-74
2021/12/10 03:34:32;;;;;;;;;0.00;0.00;;;;;11.68;90.80;98677.44;5082073;27;61880;-74
2021/12/10 03:36:59;;;;;;;;;0.00;0.00;;;;;11.64;90.90;98673.03;5080674;28;61779;-74
2021/12/10 03:39:26;;;;;;;;;0.00;0.00;;;;;11.53;92.59;98674.72;5080903;28;62000;-74
2021/12/10 03:41:55;;;;;;;;;0.00;0.00;;;;;11.47;93.39;98680.81;5081355;27;62425;-74
2021/12/10 03:44:20;;;;;;;;;0.00;0.00;;;;;11.50;93.24;98675.56;5081926;27;61903;-74
2021/12/10 03:46:46;;;;;;;;;0.75;0.00;;;;;11.48;93.96;98686.94;5080367;28;61773;-74
2021/12/10 03:49:13;;;;;;;;;3.00;0.00;;;;;11.45;94.53;98688.69;5081901;27;62115;-74
2021/12/10 03:51:38;;;;;;;;;1.00;0.00;;;;;11.39;95.46;98687.75;5081263;28;61810;-74
2021/12/10 03:54:06;;;;;;;;;0.00;0.00;;;;;11.40;95.90;98690.41;5080484;28;61817;-74
2021/12/10 03:56:34;;;;;;;;;0.25;0.25;;;;;11.40;96.61;98689.53;5081617;27;61903;-74
2021/12/10 03:59:04;;;;;;;;;2.00;1.00;;;;;11.50;96.69;98690.47;5074659;28;62026;-74
2021/12/10 04:01:33;;;;;;;;;0.50;0.50;;;;;11.55;96.42;98684.38;5079287;28;64240;-74
2021/12/10 04:04:02;;;;;;;;;2.25;0.75;;;;;11.55;96.65;98694.00;5080011;28;62251;-74
2021/12/10 04:06:28;;;;;;;;;0.00;0.00;;;;;11.64;96.62;98686.19;5082108;27;61811;-74
2021/12/10 04:08:55;;;;;;;;;4.50;1.25;;;;;11.64;96.94;98687.06;5085478;27;61973;-74
2021/12/10 04:11:21;;;;;;;;;1.25;0.00;;;;;11.69;96.90;98689.69;5084323;27;62705;-74
2021/12/10 04:13:49;;;;;;;;;5.00;0.75;;;;;11.76;96.17;98683.63;5085219;27;62004;-74
2021/12/10 04:16:17;;;;;;;;;1.00;1.00;;;;;11.79;96.18;98695.91;5083456;27;61802;-74
2021/12/10 04:18:43;;;;;;;;;2.25;1.00;;;;;11.73;97.10;98690.63;5083748;28;61762;-74
2021/12/10 04:21:09;;;;;;;;;1.00;1.00;;;;;11.77;95.93;98681.88;5083247;28;63671;-74
2021/12/10 04:23:35;;;;;;;;;0.50;0.50;;;;;11.80;96.41;98698.56;5084649;27;61893;-74
2021/12/10 04:26:01;;;;;;;;;0.00;0.00;;;;;11.80;96.61;98689.75;5084971;27;61826;-74
2021/12/10 04:28:27;;;;;;;;;4.25;2.00;;;;;11.83;96.56;98682.78;5084982;28;62148;-74
2021/12/10 04:30:53;;;;;;;;;2.00;2.00;;;;;11.87;96.48;98692.44;5084255;27;62044;-74
2021/12/10 04:33:22;;;;;;;;;6.00;2.00;;;;;12.02;95.08;98690.81;5082983;28;62161;-74
2021/12/10 04:35:50;;;;;;;;;1.00;1.00;;;;;11.88;96.02;98701.25;5085215;27;61841;-74
2021/12/10 04:38:17;;;;;;;;;1.25;1.25;;;;;11.85;96.81;98706.47;5085189;27;62186;-74
2021/12/10 04:40:46;;;;;;;;;2.00;2.00;;;;;12.03;95.77;98697.81;5084411;27;62513;-74
2021/12/10 04:43:12;;;;;;;;;2.25;1.00;;;;;12.03;96.02;98703.06;5085106;27;62357;-75
2021/12/10 04:45:37;;;;;;;;;2.75;2.00;;;;;12.00;95.89;98711.81;5084635;27;61695;-74
2021/12/10 04:48:03;;;;;;;;;2.25;1.00;;;;;12.11;94.72;98705.75;5084602;27;61846;-74
2021/12/10 04:50:30;;;;;;;;;3.75;2.50;;;;;12.07;95.18;98705.72;5084059;27;62071;-75
2021/12/10 04:52:56;;;;;;;;;3.75;2.50;;;;;12.10;94.32;98699.59;5084836;27;61980;-74
2021/12/10 04:55:23;;;;;;;;;2.00;2.00;;;;;12.15;94.31;98704.91;5084494;27;61849;-74
2021/12/10 04:57:48;;;;;;;;;0.50;0.50;;;;;12.12;93.66;98712.75;5082859;27;61898;-74
2021/12/10 05:00:25;;;;;;;;;3.25;2.00;;;;;12.36;93.10;98704.06;5083887;28;61769;-74
2021/12/10 05:02:51;;;;;;;;;3.75;2.00;;;;;12.27;92.94;98713.72;5084408;27;62178;-74
2021/12/10 05:05:16;;;;;;;;;6.00;3.00;;;;;12.26;92.80;98717.19;5084600;27;61766;-74
2021/12/10 05:07:42;;;;;;;;;7.00;3.00;;;;;12.19;92.69;98714.53;5084512;27;61763;-74
2021/12/10 05:10:10;;;;;;;;;2.75;2.25;;;;;12.33;92.48;98719.84;5083932;28;61721;-74
2021/12/10 05:12:36;;;;;;;;;4.75;1.00;;;;;12.34;92.34;98726.88;5084302;27;61651;-74
2021/12/10 05:15:06;;;;;;;;;2.50;1.00;;;;;12.23;95.40;98732.97;5084791;27;62226;-74
2021/12/10 05:17:33;;;;;;;;;1.00;0.00;;;;;12.20;93.10;98737.34;5084047;27;61822;-74
2021/12/10 05:20:00;;;;;;;;;5.75;2.75;;;;;12.18;92.86;98749.59;5081405;28;64560;-74
2021/12/10 05:22:27;;;;;;;;;0.50;0.25;;;;;12.24;92.70;98757.53;5084391;27;62097;-74
2021/12/10 05:24:52;;;;;;;;;7.00;3.00;;;;;12.30;92.10;98761.91;5084349;27;61711;-74
2021/12/10 05:27:18;;;;;;;;;6.00;2.00;;;;;12.24;91.25;98768.06;5084103;28;61740;-74
2021/12/10 05:29:43;;;;;;;;;5.75;2.25;;;;;12.28;91.33;98749.66;5083435;27;62750;-74
2021/12/10 05:32:10;;;;;;;;;6.00;4.00;;;;;12.18;95.18;98768.88;5083714;27;61803;-74
2021/12/10 05:34:39;;;;;;;;;2.00;1.50;;;;;12.25;93.80;98773.31;5084029;27;61892;-74
2021/12/10 05:37:06;;;;;;;;;6.00;2.00;;;;;12.28;92.79;98785.59;5082990;28;62067;-74
2021/12/10 05:39:32;;;;;;;;;3.75;1.50;;;;;12.24;91.19;98787.34;5083241;28;62098;-74
2021/12/10 05:41:57;;;;;;;;;2.75;1.25;;;;;12.22;91.03;98785.56;5083892;27;61990;-74
2021/12/10 05:44:23;;;;;;;;;1.00;1.00;;;;;12.12;91.29;98791.66;5084075;28;61972;-74
2021/12/10 05:46:48;;;;;;;;;5.00;1.00;;;;;12.30;90.65;98790.84;5081926;27;62188;-74
2021/12/10 05:49:14;;;;;;;;;3.50;2.25;;;;;12.24;91.08;98789.97;5083235;27;62764;-74
2021/12/10 05:51:40;;;;;;;;;4.50;0.75;;;;;12.25;90.70;98794.38;5083754;27;61667;-74
2021/12/10 05:54:06;;;;;;;;;2.75;1.00;;;;;12.23;91.03;98792.56;5082412;27;62022;-75
2021/12/10 05:56:31;;;;;;;;;1.75;1.75;;;;;12.30;90.42;98809.28;5083635;28;62120;-75
2021/12/10 05:58:57;;;;;;;;;2.75;2.00;;;;;12.20;91.29;98809.22;5063958;28;63539;-74
2021/12/10 06:01:24;;;;;;;;;4.50;0.25;;;;;12.11;91.74;98806.56;5062837;28;62204;-74
2021/12/10 06:03:53;;;;;;;;;7.25;1.50;;;;;12.12;92.25;98815.31;5061774;28;62224;-74
2021/12/10 06:06:26;;;;;;;;;2.00;1.00;;;;;11.96;92.48;98832.75;5063535;28;61894;-74
2021/12/10 06:08:53;;;;;;;;;0.25;0.25;;;;;11.95;91.86;98839.72;5062623;28;62782;-75
2021/12/10 06:11:21;;;;;;;;;1.75;0.50;;;;;12.01;90.96;98841.53;5061754;28;61968;-74
2021/12/10 06:13:52;;;;;;;;;1.75;1.25;;;;;12.00;91.67;98851.19;5063193;28;61898;-74
2021/12/10 06:16:24;;;;;;;;;1.00;1.00;;;;;11.92;91.21;98847.63;5063076;28;61953;-74
2021/12/10 06:18:50;;;;;;;;;4.50;2.00;;;;;12.04;91.11;98847.72;5077705;28;63706;-74
2021/12/10 06:21:16;;;;;;;;;3.00;2.00;;;;;12.08;90.74;98859.13;5063096;28;61846;-74
2021/12/10 06:23:41;;;;;;;;;3.00;3.00;;;;;12.06;91.05;98852.97;5062732;28;62175;-74
2021/12/10 06:26:07;;;;;;;;;5.50;1.50;;;;;11.97;91.52;98871.31;5061392;28;61878;-74
2021/12/10 06:28:34;;;;;;;;;6.25;2.75;;;;;11.99;91.95;98859.06;5057392;28;62753;-74
2021/12/10 06:31:00;;;;;;;;;2.25;0.00;;;;;11.99;92.31;98866.94;5060665;28;62241;-74
2021/12/10 06:33:28;;;;;;;;;2.75;1.00;;;;;12.04;91.81;98870.50;5061225;28;61909;-74
2021/12/10 06:35:55;;;;;;;;;6.25;3.00;;;;;12.10;91.86;98874.91;5060861;28;62043;-74
2021/12/10 06:38:22;;;;;;;;;8.00;1.75;;;;;12.01;93.69;98878.34;5062156;28;62856;-74
2021/12/10 06:40:49;;;;;;;;;2.75;1.25;;;;;11.80;100.00;98887.81;5062137;28;61933;-74
2021/12/10 06:43:16;;;;;;;;;2.00;1.75;;;;;11.71;100.00;98887.72;5061350;28;61972;-75
2021/12/10 06:45:43;;;;;;;;;5.00;1.25;;;;;11.65;99.77;98883.28;5062546;28;61753;-75
2021/12/10 06:48:10;;;;;;;;;1.75;1.75;;;;;11.59;98.14;98898.09;5061384;28;61990;-75
2021/12/10 06:50:42;;;;;;;;;2.25;1.00;;;;;11.41;97.72;98901.44;5060309;28;61912;-75
2021/12/10 06:53:08;;;;;;;;;3.75;1.00;;;;;11.41;96.82;98911.94;5077291;28;61780;-75
2021/12/10 06:55:34;;;;;;;;;2.00;0.75;;;;;11.61;95.70;98920.91;5062019;28;62137;-75
2021/12/10 06:58:00;;;;;;;;;0.75;0.75;;;;;11.69;97.30;98931.50;5066759;28;61912;-74
2021/12/10 07:00:49;;;;;;;;;3.00;1.00;;;;;11.59;96.34;98941.03;5082251;27;62012;-74
2021/12/10 07:03:18;;;;;;;;;0.75;0.00;;;;;11.66;95.67;98948.13;5080721;28;61957;-75
2021/12/10 07:05:45;;;;;;;;;1.75;1.00;;;;;11.67;95.97;98956.88;5081218;28;62205;-74
2021/12/10 07:08:11;;;;;;;;;1.00;0.00;;;;;11.58;100.00;98960.28;5081735;27;62937;-75
2021/12/10 07:10:37;;;;;;;;;1.00;0.75;;;;;11.50;98.14;98969.81;5082230;27;61929;-75
2021/12/10 07:13:06;;;;;;;;;2.00;1.00;;;;;11.38;96.52;98977.59;5080758;28;61846;-75
2021/12/10 07:15:37;;;;;;;;;1.00;1.00;;;;;11.51;94.58;98986.50;5068856;27;61724;-74
2021/12/10 07:18:03;;;;;;;;;0.00;0.00;;;;;11.52;98.10;98983.00;5060887;28;61838;-77
2021/12/10 07:20:30;;;;;;;;;1.75;1.00;;;;;11.50;92.41;98996.09;5061168;28;61984;-74
2021/12/10 07:22:56;;;;;;;;;2.00;0.25;;;;;11.46;92.17;99008.34;5060213;28;61791;-74
2021/12/10 07:25:21;;;;;;;;;2.50;0.00;;;;;11.49;95.00;99006.63;5061702;28;61843;-74
2021/12/10 07:27:49;;;;;;;;;2.75;1.00;;;;;11.43;95.00;99008.28;5059839;28;63714;-74
2021/12/10 07:30:16;;;;;;;;;2.25;0.00;;;;;11.30;93.93;99019.50;5061563;28;61890;-74
2021/12/10 07:32:41;;;;;;;;;1.25;0.00;;;;;11.21;99.44;99045.66;5061829;28;62096;-75
2021/12/10 07:35:08;;;;;;;;;0.00;0.00;;;;;11.06;100.00;99054.22;5061358;28;61743;-75
2021/12/10 07:37:35;;;;;;;;;1.75;0.00;;;;;11.01;97.96;99048.91;5059864;28;64870;-74
2021/12/10 07:40:02;;;;;;;;;2.00;0.00;;;;;10.86;95.52;99043.41;5060091;28;61932;-76
2021/12/10 07:42:27;;;;;;;;;0.00;0.00;;;;;11.10;96.01;99048.13;5062765;28;61751;-74
2021/12/10 07:44:56;;;;;;;;;1.00;1.00;;;;;11.18;92.58;99058.72;5063504;28;61783;-74
2021/12/10 07:47:22;;;;;;;;;0.75;0.75;;;;;11.19;91.03;99057.88;5063422;28;61839;-74
2021/12/10 07:49:48;;;;;;;;;0.25;0.25;;;;;11.11;89.26;99076.16;5061896;28;61838;-74
2021/12/10 07:52:22;;;;;;;;;0.00;0.00;;;;;11.23;87.71;99072.84;5054434;28;61967;-74
2021/12/10 07:54:49;;;;;;;;;2.50;0.25;;;;;11.15;86.17;99080.59;5051382;28;61899;-74
2021/12/10 07:57:17;;;;;;;;;0.75;0.50;;;;;11.21;86.21;99077.19;5054334;28;62071;-74
2021/12/10 07:59:43;;;;;;;;;3.00;0.00;;;;;11.18;86.14;99085.00;5056796;28;61968;-74
2021/12/10 08:02:09;;;;;;;;;0.00;0.00;;;;;11.34;85.84;99094.00;5053231;28;61927;-74
2021/12/10 08:04:35;;;;;;;;;1.50;1.00;;;;;11.35;85.19;99106.25;5054354;28;61906;-74
2021/12/10 08:07:00;;;;;;;;;1.00;0.00;;;;;11.31;85.00;99104.44;5054459;28;61842;-74
2021/12/10 08:09:26;;;;;;;;;0.75;0.50;;;;;11.35;85.27;99106.25;5052788;28;62197;-74
2021/12/10 08:11:52;;;;;;;;;2.75;0.75;;;;;11.32;84.63;99111.47;5054726;28;61736;-74
2021/12/10 08:14:17;;;;;;;;;2.00;0.75;;;;;11.33;83.94;99132.50;5054446;28;62252;-74
2021/12/10 08:16:43;;;;;;;;;4.75;0.25;;;;;11.37;83.16;99136.06;5052626;28;62788;-75
2021/12/10 08:19:12;;;;;;;;;0.00;0.00;;;;;11.17;82.87;99148.91;5062341;27;62071;-75
2021/12/10 08:21:39;;;;;;;;;1.75;1.00;;;;;11.17;82.07;99152.41;5064900;28;61854;-75
2021/12/10 08:24:05;;;;;;;;;2.00;0.25;;;;;11.16;80.91;99158.53;5064653;28;61955;-74
2021/12/10 08:26:30;;;;;;;;;4.25;1.00;;;;;11.30;81.14;99160.47;5063545;28;61870;-74
2021/12/10 08:28:56;;;;;;;;;1.50;1.50;;;;;11.38;80.57;99164.09;5063331;28;61811;-75
2021/12/10 08:31:21;;;;;;;;;2.00;1.00;;;;;11.34;79.50;99176.31;5064314;28;62498;-72
2021/12/10 08:33:49;;;;;;;;;0.00;0.00;;;;;11.34;79.64;99194.69;5064856;28;61912;-74
2021/12/10 08:36:17;;;;;;;;;2.50;0.00;;;;;11.35;79.24;99191.19;5062343;28;63633;-74
2021/12/10 08:38:43;;;;;;;;;0.00;0.00;;;;;11.30;78.58;99192.88;5064342;28;61756;-74
2021/12/10 08:41:14;;;;;;;;;2.00;1.00;;;;;11.31;77.98;99204.25;5064435;28;61915;-74
2021/12/10 08:43:40;;;;;;;;;1.00;1.00;;;;;11.19;77.68;99205.84;5064425;28;61827;-74
2021/12/10 08:46:07;;;;;;;;;0.50;0.50;;;;;11.33;78.30;99206.03;5062297;28;63683;-74
2021/12/10 08:48:34;;;;;;;;;1.25;1.00;;;;;11.32;78.15;99213.91;5063623;28;61751;-74
2021/12/10 08:51:04;;;;;;;;;0.00;0.00;;;;;11.25;78.50;99220.81;5064216;28;61802;-75
2021/12/10 08:53:30;;;;;;;;;1.25;0.75;;;;;11.26;78.74;99223.44;5062481;28;61917;-75
2021/12/10 08:55:57;;;;;;;;;0.00;0.00;;;;;11.11;79.16;99228.44;5063003;28;62815;-75
2021/12/10 08:58:24;;;;;;;;;2.00;1.00;;;;;10.94;79.55;99240.41;5073228;28;61839;-75
2021/12/10 09:00:56;;;;;;;;;0.50;0.50;;;;;11.03;79.33;99238.84;5082967;27;62060;-76
2021/12/10 09:03:22;;;;;;;;;5.75;1.00;;;;;11.01;79.97;99237.94;5084065;27;61745;-75
2021/12/10 09:05:47;;;;;;;;;2.00;1.00;;;;;11.04;79.58;99237.97;5083758;28;62881;-75
2021/12/10 09:08:13;;;;;;;;;2.50;0.25;;;;;11.20;79.64;99238.22;5084152;27;61829;-76
2021/12/10 09:10:41;;;;;;;;;0.25;0.25;;;;;11.14;79.07;99246.91;5084182;27;62006;-75
2021/12/10 09:13:13;;;;;;;;;2.00;1.25;;;;;11.17;78.83;99256.56;5084654;27;61968;-75
2021/12/10 09:15:42;;;;;;;;;0.00;0.00;;;;;11.35;80.14;99256.84;5064704;27;62645;-75
2021/12/10 09:18:08;;;;;;;;;0.75;0.75;;;;;11.33;81.73;99263.81;5062055;28;61988;-74
2021/12/10 09:20:39;;;;;;;;;1.00;0.00;;;;;11.43;80.45;99265.75;5062268;28;61959;-76
2021/12/10 09:23:07;;;;;;;;;1.75;1.50;;;;;11.35;80.60;99272.63;5063805;28;61973;-75
2021/12/10 09:25:34;;;;;;;;;2.00;1.00;;;;;11.24;80.50;99282.94;5062552;28;62678;-75
2021/12/10 09:28:00;;;;;;;;;2.00;1.00;;;;;11.19;80.57;99284.63;5063707;28;61996;-75
2021/12/10 09:30:28;;;;;;;;;3.00;0.00;;;;;11.24;80.32;99275.06;5063583;28;61771;-74
2021/12/10 09:32:54;;;;;;;;;3.50;2.00;;;;;11.25;80.11;99289.09;5079065;28;62267;-74
2021/12/10 09:35:22;;;;;;;;;1.50;1.00;;;;;11.59;79.64;99295.81;5062897;28;61860;-75
2021/12/10 09:37:49;;;;;;;;;1.75;1.00;;;;;11.63;79.25;99299.34;5063345;28;62101;-73
2021/12/10 09:40:19;;;;;;;;;3.50;1.50;;;;;11.61;78.74;99301.06;5063716;28;61719;-75
2021/12/10 09:42:46;;;;;;;;;4.50;1.00;;;;;11.55;78.84;99320.28;5061492;28;61950;-74
2021/12/10 09:45:19;;;;;;;;;0.50;0.50;;;;;11.42;78.98;99307.78;5062459;28;62895;-75
2021/12/10 09:47:45;;;;;;;;;1.75;0.00;;;;;11.68;78.95;99316.09;5062212;28;61830;-74
2021/12/10 09:50:14;;;;;;;;;8.50;3.00;;;;;11.54;78.50;99320.22;5062672;28;61950;-74
2021/12/10 09:52:40;;;;;;;;;1.00;1.00;;;;;11.73;77.94;99329.31;5062297;28;62072;-75
2021/12/10 09:55:09;;;;;;;;;9.00;2.00;;;;;11.87;77.18;99339.19;5062261;28;62837;-74
2021/12/10 09:57:36;;;;;;;;;0.00;0.00;;;;;12.04;76.71;99347.38;5062711;28;61841;-75
2021/12/10 10:00:12;;;;;;;;;2.50;1.00;;;;;11.93;75.65;99333.16;5061681;28;61983;-74
2021/12/10 10:02:39;;;;;;;;;5.25;1.25;;;;;12.03;76.10;99337.69;5062816;28;62155;-74
2021/12/10 10:05:06;;;;;;;;;2.00;2.00;;;;;12.15;74.39;99359.81;5060478;28;64131;-74
2021/12/10 10:07:33;;;;;;;;;1.75;1.75;;;;;12.16;73.77;99366.81;5062593;28;61849;-75
2021/12/10 10:10:07;;;;;;;;;4.75;2.00;;;;;12.33;74.45;99365.31;5062868;28;61679;-74
2021/12/10 10:12:36;;;;;;;;;1.25;0.25;;;;;12.02;79.62;99372.75;5063049;28;61919;-75
2021/12/10 10:15:06;;;;;;;;;3.00;2.00;;;;;11.78;78.49;99375.84;5062323;28;61779;-75
2021/12/10 10:17:32;;;;;;;;;2.00;1.00;;;;;11.82;79.34;99371.50;5062654;28;61793;-75
2021/12/10 10:19:58;;;;;;;;;5.75;4.50;;;;;11.85;79.59;99376.84;5062312;28;61736;-74
2021/12/10 10:22:29;;;;;;;;;5.00;3.00;;;;;11.84;77.53;99375.94;5062791;28;61770;-74
2021/12/10 10:24:55;;;;;;;;;5.50;2.25;;;;;11.79;76.30;99389.88;5061919;28;61928;-75
2021/12/10 10:27:29;;;;;;;;;3.25;1.50;;;;;12.03;76.41;99384.16;5062375;28;62481;-75
2021/12/10 10:30:01;;;;;;;;;1.00;1.00;;;;;11.93;74.02;99384.88;5062365;28;62103;-75
2021/12/10 10:32:31;;;;;;;;;4.50;2.50;;;;;11.98;74.19;99412.13;5062616;28;61910;-75
2021/12/10 10:35:01;;;;;;;;;2.00;2.00;;;;;11.97;73.14;99403.34;5060373;28;63674;-75
2021/12/10 10:37:28;;;;;;;;;7.50;2.25;;;;;12.15;72.46;99396.63;5062264;28;61880;-75
2021/12/10 10:39:54;;;;;;;;;3.50;2.00;;;;;12.27;72.13;99402.06;5062252;28;62190;-75
2021/12/10 10:42:24;;;;;;;;;2.50;1.75;;;;;12.47;71.27;99408.50;5062423;28;61975;-75
2021/12/10 10:44:51;;;;;;;;;2.50;0.50;;;;;12.35;70.19;99404.81;5077124;28;64784;-76
2021/12/10 10:47:21;;;;;;;;;2.75;1.00;;;;;12.33;69.10;99403.91;5061971;28;61841;-75
2021/12/10 10:49:50;;;;;;;;;1.00;0.00;;;;;12.30;68.02;99417.00;5062104;28;61917;-74
2021/12/10 10:52:21;;;;;;;;;3.00;1.00;;;;;12.22;66.91;99445.84;5062607;28;61966;-74
2021/12/10 10:54:50;;;;;;;;;2.00;1.00;;;;;12.12;67.27;99434.28;5061495;28;62716;-74
2021/12/10 10:57:25;;;;;;;;;2.00;1.00;;;;;12.17;66.02;99416.84;5061726;27;61825;-74
2021/12/10 10:59:56;;;;;;;;;7.25;1.75;;;;;12.26;65.93;99434.50;5081002;28;61887;-74
2021/12/10 11:02:23;;;;;;;;;2.00;2.00;;;;;12.35;65.41;99426.75;5082248;27;61718;-75
2021/12/10 11:04:51;;;;;;;;;2.50;0.25;;;;;12.53;65.52;99426.13;5080299;27;62319;-75
2021/12/10 11:07:22;;;;;;;;;3.50;1.00;;;;;12.53;64.70;99428.75;5080147;28;61937;-75
2021/12/10 11:09:59;;;;;;;;;2.00;1.00;;;;;12.45;64.49;99440.94;5081669;27;61780;-74
2021/12/10 11:12:31;;;;;;;;;1.00;1.00;;;;;12.65;64.76;99457.00;5082410;27;61806;-75
2021/12/10 11:14:59;;;;;;;;;3.00;3.00;;;;;12.59;64.58;99446.41;5081120;28;62518;-75
2021/12/10 11:17:29;;;;;;;;;5.25;1.00;;;;;12.72;63.87;99453.59;5079684;28;61918;-74
2021/12/10 11:20:00;;;;;;;;;1.50;1.00;;;;;12.84;63.29;99459.03;5081973;27;61860;-75
2021/12/10 11:22:28;;;;;;;;;1.50;0.00;;;;;12.81;63.21;99463.38;5081229;28;61849;-74
2021/12/10 11:24:59;;;;;;;;;3.00;1.00;;;;;12.68;61.96;99457.97;5081406;28;62828;-74
2021/12/10 11:27:37;;;;;;;;;4.50;2.50;;;;;12.92;61.98;99463.53;5081888;27;61867;-74
2021/12/10 11:30:02;;;;;;;;;1.50;1.00;;;;;12.81;61.21;99479.16;5081947;28;61817;-74
2021/12/10 11:32:37;;;;;;;;;2.00;1.00;;;;;12.84;61.58;99474.84;5082156;27;61878;-75
2021/12/10 11:35:05;;;;;;;;;0.75;0.00;;;;;12.83;61.34;99480.09;5079631;28;63882;-75
2021/12/10 11:37:57;;;;;;;;;1.25;1.00;;;;;12.97;61.34;99488.19;5082052;28;61903;-75
2021/12/10 11:40:40;;;;;;;;;1.75;1.75;;;;;13.24;60.87;99482.41;5081997;27;61682;-75
2021/12/10 11:43:18;;;;;;;;;1.00;1.00;;;;;13.25;60.37;99497.34;5080800;28;61941;-75
2021/12/10 11:46:03;;;;;;;;;1.75;1.00;;;;;13.26;59.90;99484.19;5079939;28;64779;-75
2021/12/10 11:48:30;;;;;;;;;3.00;0.25;;;;;13.46;59.34;99492.38;5081502;27;61897;-75
2021/12/10 11:51:03;;;;;;;;;0.75;0.75;;;;;13.23;60.15;99491.16;5080576;28;61687;-74